sensor_id;sensor_type;location;lat;lon;timestamp;P1;durP1;ratioP1;P2;durP2;ratioP2
24729;SDS011;12832;52.392;13.066;2022-10-26T00:00:41;1.40;;;1.30;;
24729;SDS011;12832;52.392;13.066;2022-10-26T00:03:08;1.25;;;1.15;;
24729;SDS011;12832;52.392;13.066;2022-10-26T00:05:34;1.55;;;1.30;;
24729;SDS011;12832;52.392;13.066;2022-10-26T00:08:00;1.55;;;1.45;;
24729;SDS011;12832;52.392;13.066;2022-10-26T00:10:27;1.13;;;1.02;;
24729;SDS011;12832;52.392;13.066;2022-10-26T00:12:56;1.63;;;1.30;;
24729;SDS011;12832;52.392;13.066;2022-10-26T00:15:23;1.48;;;1.20;;
24729;SDS011;12832;52.392;13.066;2022-10-26T00:17:49;1.40;;;1.30;;
24729;SDS011;12832;52.392;13.066;2022-10-26T00:20:15;1.70;;;1.27;;
24729;SDS011;12832;52.392;13.066;2022-10-26T00:22:42;1.17;;;1.08;;
24729;SDS011;12832;52.392;13.066;2022-10-26T00:25:08;1.63;;;1.10;;
24729;SDS011;12832;52.392;13.066;2022-10-26T00:27:34;1.98;;;1.15;;
24729;SDS011;12832;52.392;13.066;2022-10-26T00:30:01;1.35;;;1.25;;
24729;SDS011;12832;52.392;13.066;2022-10-26T00:32:28;1.50;;;1.30;;
24729;SDS011;12832;52.392;13.066;2022-10-26T00:34:54;1.50;;;1.40;;
24729;SDS011;12832;52.392;13.066;2022-10-26T00:37:20;1.27;;;1.17;;
24729;SDS011;12832;52.392;13.066;2022-10-26T00:39:47;1.42;;;1.33;;
24729;SDS011;12832;52.392;13.066;2022-10-26T00:42:15;1.65;;;1.40;;
24729;SDS011;12832;52.392;13.066;2022-10-26T00:47:30;1.55;;;1.42;;
24729;SDS011;12832;52.392;13.066;2022-10-26T00:50:11;1.10;;;1.00;;
24729;SDS011;12832;52.392;13.066;2022-10-26T00:52:42;1.25;;;1.15;;
24729;SDS011;12832;52.392;13.066;2022-10-26T00:55:09;1.20;;;1.10;;
24729;SDS011;12832;52.392;13.066;2022-10-26T00:57:36;1.20;;;1.10;;
24729;SDS011;12832;52.392;13.066;2022-10-26T01:00:08;1.23;;;1.13;;
24729;SDS011;12832;52.392;13.066;2022-10-26T01:02:34;1.38;;;1.23;;
24729;SDS011;12832;52.392;13.066;2022-10-26T01:05:01;1.60;;;1.48;;
24729;SDS011;12832;52.392;13.066;2022-10-26T01:07:29;1.40;;;1.30;;
24729;SDS011;12832;52.392;13.066;2022-10-26T01:09:55;1.42;;;1.33;;
24729;SDS011;12832;52.392;13.066;2022-10-26T01:12:22;1.48;;;1.38;;
24729;SDS011;12832;52.392;13.066;2022-10-26T01:14:48;1.20;;;1.10;;
24729;SDS011;12832;52.392;13.066;2022-10-26T01:20:08;1.20;;;1.10;;
24729;SDS011;12832;52.392;13.066;2022-10-26T01:23:01;1.33;;;1.20;;
24729;SDS011;12832;52.392;13.066;2022-10-26T01:25:51;1.25;;;1.15;;
24729;SDS011;12832;52.392;13.066;2022-10-26T01:31:05;1.00;;;1.00;;
24729;SDS011;12832;52.392;13.066;2022-10-26T01:33:43;1.20;;;1.10;;
24729;SDS011;12832;52.392;13.066;2022-10-26T01:38:46;1.20;;;1.10;;
24729;SDS011;12832;52.392;13.066;2022-10-26T01:44:32;1.25;;;1.15;;
24729;SDS011;12832;52.392;13.066;2022-10-26T01:47:06;1.25;;;1.10;;
24729;SDS011;12832;52.392;13.066;2022-10-26T01:49:39;1.83;;;1.10;;
24729;SDS011;12832;52.392;13.066;2022-10-26T01:52:09;0.80;;;0.80;;
24729;SDS011;12832;52.392;13.066;2022-10-26T01:54:35;1.00;;;1.00;;
24729;SDS011;12832;52.392;13.066;2022-10-26T01:57:07;1.10;;;0.90;;
24729;SDS011;12832;52.392;13.066;2022-10-26T02:02:19;1.20;;;1.10;;
24729;SDS011;12832;52.392;13.066;2022-10-26T02:16:05;1.33;;;1.23;;
24729;SDS011;12832;52.392;13.066;2022-10-26T02:21:24;1.35;;;1.25;;
24729;SDS011;12832;52.392;13.066;2022-10-26T02:23:56;0.90;;;0.90;;
24729;SDS011;12832;52.392;13.066;2022-10-26T02:26:24;1.35;;;1.20;;
24729;SDS011;12832;52.392;13.066;2022-10-26T02:28:55;1.48;;;1.33;;
24729;SDS011;12832;52.392;13.066;2022-10-26T02:31:25;1.58;;;1.10;;
24729;SDS011;12832;52.392;13.066;2022-10-26T02:33:52;1.23;;;1.13;;
24729;SDS011;12832;52.392;13.066;2022-10-26T02:36:23;1.30;;;1.20;;
24729;SDS011;12832;52.392;13.066;2022-10-26T02:38:52;2.20;;;1.48;;
24729;SDS011;12832;52.392;13.066;2022-10-26T02:41:20;1.25;;;1.15;;
24729;SDS011;12832;52.392;13.066;2022-10-26T02:43:52;1.30;;;1.20;;
24729;SDS011;12832;52.392;13.066;2022-10-26T02:46:28;1.25;;;1.05;;
24729;SDS011;12832;52.392;13.066;2022-10-26T02:48:55;2.05;;;0.90;;
24729;SDS011;12832;52.392;13.066;2022-10-26T02:56:35;1.30;;;1.20;;
24729;SDS011;12832;52.392;13.066;2022-10-26T02:59:16;1.17;;;1.08;;
24729;SDS011;12832;52.392;13.066;2022-10-26T03:01:46;1.63;;;1.40;;
24729;SDS011;12832;52.392;13.066;2022-10-26T03:04:13;1.20;;;1.10;;
24729;SDS011;12832;52.392;13.066;2022-10-26T03:06:39;1.27;;;1.17;;
24729;SDS011;12832;52.392;13.066;2022-10-26T03:09:05;1.15;;;1.05;;
24729;SDS011;12832;52.392;13.066;2022-10-26T03:11:31;1.50;;;1.40;;
24729;SDS011;12832;52.392;13.066;2022-10-26T03:13:57;1.30;;;1.20;;
24729;SDS011;12832;52.392;13.066;2022-10-26T03:16:23;1.38;;;1.20;;
24729;SDS011;12832;52.392;13.066;2022-10-26T03:18:49;1.48;;;1.23;;
24729;SDS011;12832;52.392;13.066;2022-10-26T03:21:16;1.33;;;1.23;;
24729;SDS011;12832;52.392;13.066;2022-10-26T03:23:42;1.08;;;0.98;;
24729;SDS011;12832;52.392;13.066;2022-10-26T03:26:08;1.33;;;1.20;;
24729;SDS011;12832;52.392;13.066;2022-10-26T03:28:34;1.05;;;0.95;;
24729;SDS011;12832;52.392;13.066;2022-10-26T03:31:00;1.10;;;1.00;;
24729;SDS011;12832;52.392;13.066;2022-10-26T03:33:26;1.20;;;1.10;;
24729;SDS011;12832;52.392;13.066;2022-10-26T03:35:56;1.30;;;1.10;;
24729;SDS011;12832;52.392;13.066;2022-10-26T03:38:22;0.93;;;0.90;;
24729;SDS011;12832;52.392;13.066;2022-10-26T03:40:48;1.25;;;1.15;;
24729;SDS011;12832;52.392;13.066;2022-10-26T03:43:14;1.30;;;1.20;;
24729;SDS011;12832;52.392;13.066;2022-10-26T03:45:41;1.17;;;1.00;;
24729;SDS011;12832;52.392;13.066;2022-10-26T03:48:07;1.10;;;1.00;;
24729;SDS011;12832;52.392;13.066;2022-10-26T03:50:33;1.42;;;1.33;;
24729;SDS011;12832;52.392;13.066;2022-10-26T03:52:59;1.10;;;1.00;;
24729;SDS011;12832;52.392;13.066;2022-10-26T03:55:25;0.93;;;0.90;;
24729;SDS011;12832;52.392;13.066;2022-10-26T03:57:51;4.57;;;1.20;;
24729;SDS011;12832;52.392;13.066;2022-10-26T04:00:17;3.60;;;1.38;;
24729;SDS011;12832;52.392;13.066;2022-10-26T04:02:44;1.35;;;1.00;;
24729;SDS011;12832;52.392;13.066;2022-10-26T04:05:18;2.50;;;1.40;;
24729;SDS011;12832;52.392;13.066;2022-10-26T04:07:48;1.98;;;1.35;;
24729;SDS011;12832;52.392;13.066;2022-10-26T04:10:20;2.95;;;1.23;;
24729;SDS011;12832;52.392;13.066;2022-10-26T04:12:47;2.58;;;1.40;;
24729;SDS011;12832;52.392;13.066;2022-10-26T04:15:13;1.98;;;1.50;;
24729;SDS011;12832;52.392;13.066;2022-10-26T04:17:39;1.52;;;1.10;;
24729;SDS011;12832;52.392;13.066;2022-10-26T04:20:06;1.60;;;1.35;;
24729;SDS011;12832;52.392;13.066;2022-10-26T04:22:34;1.42;;;1.30;;
24729;SDS011;12832;52.392;13.066;2022-10-26T04:25:01;3.20;;;1.50;;
24729;SDS011;12832;52.392;13.066;2022-10-26T04:27:28;1.80;;;1.13;;
24729;SDS011;12832;52.392;13.066;2022-10-26T04:29:54;1.27;;;1.17;;
24729;SDS011;12832;52.392;13.066;2022-10-26T04:32:20;2.00;;;1.27;;
24729;SDS011;12832;52.392;13.066;2022-10-26T04:34:47;1.85;;;1.35;;
24729;SDS011;12832;52.392;13.066;2022-10-26T04:37:13;2.95;;;1.30;;
24729;SDS011;12832;52.392;13.066;2022-10-26T04:39:39;1.60;;;1.50;;
24729;SDS011;12832;52.392;13.066;2022-10-26T04:42:05;3.70;;;1.70;;
24729;SDS011;12832;52.392;13.066;2022-10-26T04:44:31;2.65;;;1.45;;
24729;SDS011;12832;52.392;13.066;2022-10-26T04:46:57;1.45;;;1.35;;
24729;SDS011;12832;52.392;13.066;2022-10-26T04:49:24;2.80;;;1.30;;
24729;SDS011;12832;52.392;13.066;2022-10-26T04:51:50;3.03;;;1.23;;
24729;SDS011;12832;52.392;13.066;2022-10-26T04:54:17;3.38;;;1.50;;
24729;SDS011;12832;52.392;13.066;2022-10-26T04:56:43;1.92;;;1.40;;
24729;SDS011;12832;52.392;13.066;2022-10-26T04:59:09;2.13;;;1.63;;
24729;SDS011;12832;52.392;13.066;2022-10-26T05:01:35;1.60;;;1.50;;
24729;SDS011;12832;52.392;13.066;2022-10-26T05:04:02;1.48;;;1.38;;
24729;SDS011;12832;52.392;13.066;2022-10-26T05:06:28;3.28;;;1.40;;
24729;SDS011;12832;52.392;13.066;2022-10-26T05:08:55;1.50;;;1.40;;
24729;SDS011;12832;52.392;13.066;2022-10-26T05:11:21;3.10;;;1.58;;
24729;SDS011;12832;52.392;13.066;2022-10-26T05:13:47;5.18;;;1.92;;
24729;SDS011;12832;52.392;13.066;2022-10-26T05:16:13;2.67;;;1.80;;
24729;SDS011;12832;52.392;13.066;2022-10-26T05:18:43;3.95;;;1.80;;
24729;SDS011;12832;52.392;13.066;2022-10-26T05:21:12;3.38;;;1.60;;
24729;SDS011;12832;52.392;13.066;2022-10-26T05:23:50;2.15;;;1.55;;
24729;SDS011;12832;52.392;13.066;2022-10-26T05:26:18;1.30;;;1.20;;
24729;SDS011;12832;52.392;13.066;2022-10-26T05:28:44;1.48;;;1.38;;
24729;SDS011;12832;52.392;13.066;2022-10-26T05:31:10;1.05;;;0.95;;
24729;SDS011;12832;52.392;13.066;2022-10-26T05:33:36;1.50;;;1.40;;
24729;SDS011;12832;52.392;13.066;2022-10-26T05:36:03;1.33;;;1.02;;
24729;SDS011;12832;52.392;13.066;2022-10-26T05:38:30;2.00;;;1.77;;
24729;SDS011;12832;52.392;13.066;2022-10-26T05:40:56;2.55;;;1.90;;
24729;SDS011;12832;52.392;13.066;2022-10-26T05:43:25;3.38;;;2.17;;
24729;SDS011;12832;52.392;13.066;2022-10-26T05:45:52;2.08;;;1.75;;
24729;SDS011;12832;52.392;13.066;2022-10-26T05:48:19;5.22;;;1.60;;
24729;SDS011;12832;52.392;13.066;2022-10-26T05:50:45;1.98;;;1.40;;
24729;SDS011;12832;52.392;13.066;2022-10-26T05:53:12;1.67;;;1.35;;
24729;SDS011;12832;52.392;13.066;2022-10-26T05:55:38;1.67;;;1.20;;
24729;SDS011;12832;52.392;13.066;2022-10-26T05:58:08;2.47;;;1.60;;
24729;SDS011;12832;52.392;13.066;2022-10-26T06:00:36;2.58;;;1.20;;
24729;SDS011;12832;52.392;13.066;2022-10-26T06:03:16;1.75;;;1.52;;
24729;SDS011;12832;52.392;13.066;2022-10-26T06:05:56;1.33;;;1.23;;
24729;SDS011;12832;52.392;13.066;2022-10-26T06:08:26;1.33;;;1.10;;
24729;SDS011;12832;52.392;13.066;2022-10-26T06:10:54;1.20;;;1.10;;
24729;SDS011;12832;52.392;13.066;2022-10-26T06:13:21;1.45;;;1.23;;
24729;SDS011;12832;52.392;13.066;2022-10-26T06:16:02;1.45;;;1.35;;
24729;SDS011;12832;52.392;13.066;2022-10-26T06:21:14;1.70;;;1.30;;
24729;SDS011;12832;52.392;13.066;2022-10-26T06:24:06;1.38;;;1.27;;
24729;SDS011;12832;52.392;13.066;2022-10-26T06:32:08;2.17;;;1.60;;
24729;SDS011;12832;52.392;13.066;2022-10-26T06:34:37;2.83;;;1.60;;
24729;SDS011;12832;52.392;13.066;2022-10-26T06:37:11;2.20;;;1.55;;
24729;SDS011;12832;52.392;13.066;2022-10-26T06:39:39;1.58;;;1.48;;
24729;SDS011;12832;52.392;13.066;2022-10-26T06:42:10;2.05;;;1.60;;
24729;SDS011;12832;52.392;13.066;2022-10-26T06:44:36;1.90;;;1.65;;
24729;SDS011;12832;52.392;13.066;2022-10-26T06:50:35;2.33;;;1.60;;
24729;SDS011;12832;52.392;13.066;2022-10-26T06:55:39;1.50;;;1.40;;
24729;SDS011;12832;52.392;13.066;2022-10-26T06:58:08;2.70;;;1.80;;
24729;SDS011;12832;52.392;13.066;2022-10-26T07:00:41;1.38;;;1.27;;
24729;SDS011;12832;52.392;13.066;2022-10-26T07:03:09;3.15;;;1.40;;
24729;SDS011;12832;52.392;13.066;2022-10-26T07:05:35;1.83;;;1.40;;
24729;SDS011;12832;52.392;13.066;2022-10-26T07:08:02;2.85;;;1.63;;
24729;SDS011;12832;52.392;13.066;2022-10-26T07:10:29;1.80;;;1.50;;
24729;SDS011;12832;52.392;13.066;2022-10-26T07:12:56;1.67;;;1.58;;
24729;SDS011;12832;52.392;13.066;2022-10-26T07:15:22;1.70;;;1.60;;
24729;SDS011;12832;52.392;13.066;2022-10-26T07:17:49;1.60;;;1.50;;
24729;SDS011;12832;52.392;13.066;2022-10-26T07:20:16;3.05;;;1.50;;
24729;SDS011;12832;52.392;13.066;2022-10-26T07:22:43;2.78;;;1.50;;
24729;SDS011;12832;52.392;13.066;2022-10-26T07:25:10;1.75;;;1.65;;
24729;SDS011;12832;52.392;13.066;2022-10-26T07:27:37;3.33;;;2.10;;
24729;SDS011;12832;52.392;13.066;2022-10-26T07:30:03;3.05;;;2.22;;
24729;SDS011;12832;52.392;13.066;2022-10-26T07:32:29;6.07;;;2.38;;
24729;SDS011;12832;52.392;13.066;2022-10-26T07:34:56;4.68;;;2.40;;
24729;SDS011;12832;52.392;13.066;2022-10-26T07:37:22;2.85;;;2.20;;
24729;SDS011;12832;52.392;13.066;2022-10-26T07:39:48;3.03;;;2.13;;
24729;SDS011;12832;52.392;13.066;2022-10-26T07:42:14;7.57;;;2.35;;
24729;SDS011;12832;52.392;13.066;2022-10-26T07:44:41;3.13;;;2.28;;
24729;SDS011;12832;52.392;13.066;2022-10-26T07:47:07;4.80;;;2.33;;
24729;SDS011;12832;52.392;13.066;2022-10-26T07:49:33;1.98;;;1.67;;
24729;SDS011;12832;52.392;13.066;2022-10-26T07:52:00;7.72;;;2.20;;
24729;SDS011;12832;52.392;13.066;2022-10-26T07:54:27;7.30;;;2.33;;
24729;SDS011;12832;52.392;13.066;2022-10-26T07:56:55;5.43;;;2.30;;
24729;SDS011;12832;52.392;13.066;2022-10-26T07:59:22;6.30;;;2.42;;
24729;SDS011;12832;52.392;13.066;2022-10-26T08:01:49;2.78;;;2.15;;
24729;SDS011;12832;52.392;13.066;2022-10-26T08:04:16;3.10;;;2.20;;
24729;SDS011;12832;52.392;13.066;2022-10-26T08:06:42;6.97;;;2.28;;
24729;SDS011;12832;52.392;13.066;2022-10-26T08:09:09;2.63;;;1.95;;
24729;SDS011;12832;52.392;13.066;2022-10-26T08:11:35;4.88;;;2.28;;
24729;SDS011;12832;52.392;13.066;2022-10-26T08:14:01;3.58;;;1.77;;
24729;SDS011;12832;52.392;13.066;2022-10-26T08:16:28;1.60;;;1.50;;
24729;SDS011;12832;52.392;13.066;2022-10-26T08:18:54;1.73;;;1.38;;
24729;SDS011;12832;52.392;13.066;2022-10-26T08:21:20;1.73;;;1.25;;
24729;SDS011;12832;52.392;13.066;2022-10-26T08:24:02;8.57;;;2.05;;
24729;SDS011;12832;52.392;13.066;2022-10-26T08:26:29;3.83;;;1.95;;
24729;SDS011;12832;52.392;13.066;2022-10-26T08:28:55;6.28;;;2.17;;
24729;SDS011;12832;52.392;13.066;2022-10-26T08:34:15;10.43;;;1.98;;
24729;SDS011;12832;52.392;13.066;2022-10-26T08:36:41;2.13;;;1.23;;
24729;SDS011;12832;52.392;13.066;2022-10-26T08:39:07;3.00;;;1.30;;
24729;SDS011;12832;52.392;13.066;2022-10-26T08:41:37;2.35;;;1.33;;
24729;SDS011;12832;52.392;13.066;2022-10-26T08:44:12;3.97;;;1.75;;
24729;SDS011;12832;52.392;13.066;2022-10-26T08:47:05;1.75;;;1.65;;
24729;SDS011;12832;52.392;13.066;2022-10-26T08:49:47;1.83;;;1.30;;
24729;SDS011;12832;52.392;13.066;2022-10-26T08:52:23;1.60;;;1.42;;
24729;SDS011;12832;52.392;13.066;2022-10-26T08:54:56;1.60;;;1.25;;
24729;SDS011;12832;52.392;13.066;2022-10-26T08:57:33;2.25;;;1.05;;
24729;SDS011;12832;52.392;13.066;2022-10-26T09:00:09;1.50;;;1.40;;
24729;SDS011;12832;52.392;13.066;2022-10-26T09:02:40;4.93;;;1.75;;
24729;SDS011;12832;52.392;13.066;2022-10-26T09:05:16;5.82;;;1.90;;
24729;SDS011;12832;52.392;13.066;2022-10-26T09:10:26;7.22;;;1.98;;
24729;SDS011;12832;52.392;13.066;2022-10-26T09:24:20;1.55;;;1.13;;
24729;SDS011;12832;52.392;13.066;2022-10-26T09:26:57;1.45;;;1.35;;
24729;SDS011;12832;52.392;13.066;2022-10-26T09:29:46;2.65;;;1.45;;
24729;SDS011;12832;52.392;13.066;2022-10-26T09:32:28;2.03;;;1.40;;
24729;SDS011;12832;52.392;13.066;2022-10-26T09:35:02;1.23;;;1.13;;
24729;SDS011;12832;52.392;13.066;2022-10-26T09:40:53;1.20;;;1.10;;
24729;SDS011;12832;52.392;13.066;2022-10-26T09:43:25;1.20;;;1.10;;
24729;SDS011;12832;52.392;13.066;2022-10-26T09:46:00;2.05;;;1.17;;
24729;SDS011;12832;52.392;13.066;2022-10-26T09:48:30;1.33;;;1.00;;
24729;SDS011;12832;52.392;13.066;2022-10-26T09:51:06;1.70;;;1.15;;
24729;SDS011;12832;52.392;13.066;2022-10-26T09:53:42;1.80;;;1.25;;
24729;SDS011;12832;52.392;13.066;2022-10-26T09:56:19;3.75;;;1.52;;
24729;SDS011;12832;52.392;13.066;2022-10-26T09:58:46;3.15;;;1.40;;
24729;SDS011;12832;52.392;13.066;2022-10-26T10:06:37;3.78;;;1.60;;
24729;SDS011;12832;52.392;13.066;2022-10-26T10:09:06;2.75;;;1.30;;
24729;SDS011;12832;52.392;13.066;2022-10-26T10:11:36;1.67;;;1.30;;
24729;SDS011;12832;52.392;13.066;2022-10-26T10:14:11;1.98;;;1.20;;
24729;SDS011;12832;52.392;13.066;2022-10-26T10:16:41;3.15;;;1.65;;
24729;SDS011;12832;52.392;13.066;2022-10-26T10:19:25;2.33;;;1.50;;
24729;SDS011;12832;52.392;13.066;2022-10-26T10:22:08;1.98;;;1.33;;
24729;SDS011;12832;52.392;13.066;2022-10-26T10:24:53;3.63;;;1.50;;
24729;SDS011;12832;52.392;13.066;2022-10-26T10:27:21;2.17;;;1.35;;
24729;SDS011;12832;52.392;13.066;2022-10-26T10:29:48;2.13;;;1.20;;
24729;SDS011;12832;52.392;13.066;2022-10-26T10:32:28;2.63;;;1.48;;
24729;SDS011;12832;52.392;13.066;2022-10-26T10:35:03;1.50;;;1.20;;
24729;SDS011;12832;52.392;13.066;2022-10-26T10:37:47;1.58;;;1.25;;
24729;SDS011;12832;52.392;13.066;2022-10-26T10:40:19;2.90;;;1.30;;
24729;SDS011;12832;52.392;13.066;2022-10-26T10:42:52;1.98;;;1.35;;
24729;SDS011;12832;52.392;13.066;2022-10-26T10:45:28;3.08;;;1.67;;
24729;SDS011;12832;52.392;13.066;2022-10-26T10:48:00;5.30;;;1.40;;
24729;SDS011;12832;52.392;13.066;2022-10-26T10:50:28;3.22;;;1.20;;
24729;SDS011;12832;52.392;13.066;2022-10-26T10:53:14;2.50;;;1.30;;
24729;SDS011;12832;52.392;13.066;2022-10-26T10:55:51;2.38;;;1.10;;
24729;SDS011;12832;52.392;13.066;2022-10-26T11:01:39;1.45;;;1.17;;
24729;SDS011;12832;52.392;13.066;2022-10-26T11:06:58;1.50;;;1.15;;
24729;SDS011;12832;52.392;13.066;2022-10-26T11:09:28;3.38;;;1.30;;
24729;SDS011;12832;52.392;13.066;2022-10-26T11:12:00;2.08;;;1.50;;
24729;SDS011;12832;52.392;13.066;2022-10-26T11:14:32;2.15;;;1.02;;
24729;SDS011;12832;52.392;13.066;2022-10-26T11:17:07;2.17;;;1.13;;
24729;SDS011;12832;52.392;13.066;2022-10-26T11:19:59;2.20;;;1.15;;
24729;SDS011;12832;52.392;13.066;2022-10-26T11:22:52;1.27;;;0.90;;
24729;SDS011;12832;52.392;13.066;2022-10-26T11:25:28;3.65;;;1.10;;
24729;SDS011;12832;52.392;13.066;2022-10-26T11:28:04;1.63;;;1.05;;
24729;SDS011;12832;52.392;13.066;2022-10-26T11:30:44;1.92;;;1.10;;
24729;SDS011;12832;52.392;13.066;2022-10-26T11:33:17;1.40;;;0.98;;
24729;SDS011;12832;52.392;13.066;2022-10-26T11:36:04;1.48;;;0.90;;
24729;SDS011;12832;52.392;13.066;2022-10-26T11:38:35;2.13;;;1.33;;
24729;SDS011;12832;52.392;13.066;2022-10-26T11:41:39;1.45;;;1.10;;
24729;SDS011;12832;52.392;13.066;2022-10-26T11:44:15;1.85;;;1.30;;
24729;SDS011;12832;52.392;13.066;2022-10-26T11:46:51;1.30;;;1.10;;
24729;SDS011;12832;52.392;13.066;2022-10-26T11:49:27;1.48;;;0.90;;
24729;SDS011;12832;52.392;13.066;2022-10-26T11:51:55;2.55;;;1.27;;
24729;SDS011;12832;52.392;13.066;2022-10-26T11:57:30;1.30;;;1.10;;
24729;SDS011;12832;52.392;13.066;2022-10-26T12:00:02;2.72;;;1.20;;
24729;SDS011;12832;52.392;13.066;2022-10-26T12:02:29;2.95;;;1.05;;
24729;SDS011;12832;52.392;13.066;2022-10-26T12:05:02;1.73;;;1.00;;
24729;SDS011;12832;52.392;13.066;2022-10-26T12:07:31;2.42;;;1.23;;
24729;SDS011;12832;52.392;13.066;2022-10-26T12:10:01;1.88;;;1.00;;
24729;SDS011;12832;52.392;13.066;2022-10-26T12:15:23;2.20;;;0.85;;
24729;SDS011;12832;52.392;13.066;2022-10-26T12:21:06;1.95;;;1.30;;
24729;SDS011;12832;52.392;13.066;2022-10-26T12:23:35;1.88;;;1.10;;
24729;SDS011;12832;52.392;13.066;2022-10-26T12:26:36;1.33;;;0.95;;
24729;SDS011;12832;52.392;13.066;2022-10-26T12:33:58;2.45;;;0.98;;
24729;SDS011;12832;52.392;13.066;2022-10-26T12:50:01;2.17;;;1.13;;
24729;SDS011;12832;52.392;13.066;2022-10-26T12:52:50;1.90;;;0.95;;
24729;SDS011;12832;52.392;13.066;2022-10-26T13:06:03;1.58;;;1.02;;
24729;SDS011;12832;52.392;13.066;2022-10-26T13:11:31;3.63;;;1.38;;
24729;SDS011;12832;52.392;13.066;2022-10-26T13:14:07;3.35;;;1.00;;
24729;SDS011;12832;52.392;13.066;2022-10-26T13:16:50;2.20;;;1.15;;
24729;SDS011;12832;52.392;13.066;2022-10-26T13:22:12;1.98;;;1.08;;
24729;SDS011;12832;52.392;13.066;2022-10-26T13:24:52;1.60;;;1.08;;
24729;SDS011;12832;52.392;13.066;2022-10-26T13:27:22;2.50;;;1.20;;
24729;SDS011;12832;52.392;13.066;2022-10-26T13:32:29;1.63;;;1.10;;
24729;SDS011;12832;52.392;13.066;2022-10-26T13:35:04;2.70;;;1.20;;
24729;SDS011;12832;52.392;13.066;2022-10-26T13:37:37;1.33;;;0.90;;
24729;SDS011;12832;52.392;13.066;2022-10-26T13:40:12;2.00;;;1.00;;
24729;SDS011;12832;52.392;13.066;2022-10-26T13:42:50;2.20;;;1.08;;
24729;SDS011;12832;52.392;13.066;2022-10-26T13:45:56;1.00;;;0.88;;
24729;SDS011;12832;52.392;13.066;2022-10-26T13:50:59;1.65;;;0.93;;
24729;SDS011;12832;52.392;13.066;2022-10-26T13:59:18;1.35;;;0.90;;
24729;SDS011;12832;52.392;13.066;2022-10-26T14:01:45;1.45;;;0.93;;
24729;SDS011;12832;52.392;13.066;2022-10-26T14:04:43;1.08;;;0.90;;
24729;SDS011;12832;52.392;13.066;2022-10-26T14:07:14;1.77;;;0.93;;
24729;SDS011;12832;52.392;13.066;2022-10-26T14:09:54;1.40;;;1.00;;
24729;SDS011;12832;52.392;13.066;2022-10-26T14:12:22;1.80;;;0.93;;
24729;SDS011;12832;52.392;13.066;2022-10-26T14:14:50;1.75;;;0.82;;
24729;SDS011;12832;52.392;13.066;2022-10-26T14:17:21;1.67;;;0.88;;
24729;SDS011;12832;52.392;13.066;2022-10-26T14:19:50;1.17;;;0.85;;
24729;SDS011;12832;52.392;13.066;2022-10-26T14:22:21;0.93;;;0.73;;
24729;SDS011;12832;52.392;13.066;2022-10-26T14:24:50;1.98;;;0.90;;
24729;SDS011;12832;52.392;13.066;2022-10-26T14:27:20;3.08;;;1.15;;
24729;SDS011;12832;52.392;13.066;2022-10-26T14:29:50;1.17;;;0.90;;
24729;SDS011;12832;52.392;13.066;2022-10-26T14:32:37;1.60;;;0.80;;
24729;SDS011;12832;52.392;13.066;2022-10-26T14:35:04;4.65;;;1.10;;
24729;SDS011;12832;52.392;13.066;2022-10-26T14:37:39;1.50;;;0.90;;
24729;SDS011;12832;52.392;13.066;2022-10-26T14:40:22;1.92;;;1.05;;
24729;SDS011;12832;52.392;13.066;2022-10-26T14:42:51;1.65;;;1.00;;
24729;SDS011;12832;52.392;13.066;2022-10-26T14:45:31;1.20;;;0.93;;
24729;SDS011;12832;52.392;13.066;2022-10-26T14:48:18;0.80;;;0.80;;
24729;SDS011;12832;52.392;13.066;2022-10-26T14:51:28;1.83;;;1.00;;
24729;SDS011;12832;52.392;13.066;2022-10-26T14:53:40;1.05;;;0.70;;
24729;SDS011;12832;52.392;13.066;2022-10-26T14:58:50;0.90;;;0.70;;
24729;SDS011;12832;52.392;13.066;2022-10-26T15:03:54;1.48;;;1.00;;
24729;SDS011;12832;52.392;13.066;2022-10-26T15:09:01;2.65;;;1.08;;
24729;SDS011;12832;52.392;13.066;2022-10-26T15:11:30;2.70;;;0.98;;
24729;SDS011;12832;52.392;13.066;2022-10-26T15:13:59;1.00;;;0.82;;
24729;SDS011;12832;52.392;13.066;2022-10-26T15:16:27;1.75;;;1.10;;
24729;SDS011;12832;52.392;13.066;2022-10-26T15:18:59;1.80;;;0.98;;
24729;SDS011;12832;52.392;13.066;2022-10-26T15:21:36;1.50;;;0.82;;
24729;SDS011;12832;52.392;13.066;2022-10-26T15:26:45;1.45;;;1.08;;
24729;SDS011;12832;52.392;13.066;2022-10-26T15:32:03;1.67;;;0.93;;
24729;SDS011;12832;52.392;13.066;2022-10-26T15:34:35;1.80;;;1.20;;
24729;SDS011;12832;52.392;13.066;2022-10-26T15:37:01;1.50;;;0.80;;
24729;SDS011;12832;52.392;13.066;2022-10-26T15:39:27;1.95;;;1.00;;
24729;SDS011;12832;52.392;13.066;2022-10-26T15:41:53;1.25;;;0.88;;
24729;SDS011;12832;52.392;13.066;2022-10-26T15:44:20;1.50;;;0.77;;
24729;SDS011;12832;52.392;13.066;2022-10-26T15:46:47;1.25;;;0.88;;
24729;SDS011;12832;52.392;13.066;2022-10-26T15:49:15;1.38;;;0.90;;
24729;SDS011;12832;52.392;13.066;2022-10-26T15:51:46;1.17;;;0.90;;
24729;SDS011;12832;52.392;13.066;2022-10-26T15:54:13;1.95;;;1.00;;
24729;SDS011;12832;52.392;13.066;2022-10-26T15:56:40;0.90;;;0.70;;
24729;SDS011;12832;52.392;13.066;2022-10-26T15:59:17;1.27;;;0.90;;
24729;SDS011;12832;52.392;13.066;2022-10-26T16:01:44;1.75;;;1.00;;
24729;SDS011;12832;52.392;13.066;2022-10-26T16:04:11;0.73;;;0.70;;
24729;SDS011;12832;52.392;13.066;2022-10-26T16:06:38;1.75;;;0.98;;
24729;SDS011;12832;52.392;13.066;2022-10-26T16:09:08;2.45;;;1.00;;
24729;SDS011;12832;52.392;13.066;2022-10-26T16:11:38;1.52;;;1.00;;
24729;SDS011;12832;52.392;13.066;2022-10-26T16:14:04;3.85;;;1.25;;
24729;SDS011;12832;52.392;13.066;2022-10-26T16:16:30;1.20;;;1.00;;
24729;SDS011;12832;52.392;13.066;2022-10-26T16:18:56;1.10;;;1.00;;
24729;SDS011;12832;52.392;13.066;2022-10-26T16:21:42;1.40;;;1.00;;
24729;SDS011;12832;52.392;13.066;2022-10-26T16:24:09;1.17;;;1.08;;
24729;SDS011;12832;52.392;13.066;2022-10-26T16:26:35;2.88;;;1.20;;
24729;SDS011;12832;52.392;13.066;2022-10-26T16:29:01;2.90;;;1.20;;
24729;SDS011;12832;52.392;13.066;2022-10-26T16:31:28;1.60;;;1.10;;
24729;SDS011;12832;52.392;13.066;2022-10-26T16:33:54;2.20;;;1.40;;
24729;SDS011;12832;52.392;13.066;2022-10-26T16:36:25;2.10;;;1.23;;
24729;SDS011;12832;52.392;13.066;2022-10-26T16:38:51;1.42;;;1.33;;
24729;SDS011;12832;52.392;13.066;2022-10-26T16:41:18;2.13;;;1.45;;
24729;SDS011;12832;52.392;13.066;2022-10-26T16:43:44;3.95;;;1.25;;
24729;SDS011;12832;52.392;13.066;2022-10-26T16:46:13;3.08;;;1.30;;
24729;SDS011;12832;52.392;13.066;2022-10-26T16:48:41;2.72;;;1.58;;
24729;SDS011;12832;52.392;13.066;2022-10-26T16:51:09;4.30;;;1.85;;
24729;SDS011;12832;52.392;13.066;2022-10-26T16:53:37;1.50;;;1.27;;
24729;SDS011;12832;52.392;13.066;2022-10-26T16:56:05;2.65;;;1.58;;
24729;SDS011;12832;52.392;13.066;2022-10-26T16:58:36;1.77;;;1.40;;
24729;SDS011;12832;52.392;13.066;2022-10-26T17:01:03;2.83;;;1.70;;
24729;SDS011;12832;52.392;13.066;2022-10-26T17:03:31;2.22;;;1.67;;
24729;SDS011;12832;52.392;13.066;2022-10-26T17:05:58;3.00;;;1.65;;
24729;SDS011;12832;52.392;13.066;2022-10-26T17:08:26;2.22;;;1.80;;
24729;SDS011;12832;52.392;13.066;2022-10-26T17:10:53;4.05;;;1.77;;
24729;SDS011;12832;52.392;13.066;2022-10-26T17:13:20;1.30;;;1.20;;
24729;SDS011;12832;52.392;13.066;2022-10-26T17:15:46;1.45;;;1.30;;
24729;SDS011;12832;52.392;13.066;2022-10-26T17:18:16;1.73;;;1.30;;
24729;SDS011;12832;52.392;13.066;2022-10-26T17:20:49;3.90;;;1.80;;
24729;SDS011;12832;52.392;13.066;2022-10-26T17:23:16;1.55;;;1.35;;